sensor_id;sensor_type;location;lat;lon;timestamp;temperature;humidity
50162;DHT22;36061;48.116;11.612;2023-11-21T00:00:35;7.80;99.90
50162;DHT22;36061;48.116;11.612;2023-11-21T00:03:02;7.80;99.90
50162;DHT22;36061;48.116;11.612;2023-11-21T00:05:31;7.80;99.90
50162;DHT22;36061;48.116;11.612;2023-11-21T00:07:58;7.80;99.90
50162;DHT22;36061;48.116;11.612;2023-11-21T00:10:26;7.70;99.90
50162;DHT22;36061;48.116;11.612;2023-11-21T00:12:54;7.70;99.90
50162;DHT22;36061;48.116;11.612;2023-11-21T00:15:22;7.60;99.90
50162;DHT22;36061;48.116;11.612;2023-11-21T00:17:49;7.60;99.90
50162;DHT22;36061;48.116;11.612;2023-11-21T00:20:16;7.60;99.90
50162;DHT22;36061;48.116;11.612;2023-11-21T00:22:45;7.60;99.90
50162;DHT22;36061;48.116;11.612;2023-11-21T00:25:12;7.50;99.90
50162;DHT22;36061;48.116;11.612;2023-11-21T00:27:41;7.50;99.90
50162;DHT22;36061;48.116;11.612;2023-11-21T00:30:09;7.50;99.90
50162;DHT22;36061;48.116;11.612;2023-11-21T00:32:37;7.40;99.90
50162;DHT22;36061;48.116;11.612;2023-11-21T00:35:05;7.40;99.90
50162;DHT22;36061;48.116;11.612;2023-11-21T00:37:32;7.40;99.90
50162;DHT22;36061;48.116;11.612;2023-11-21T00:40:01;7.40;99.90
50162;DHT22;36061;48.116;11.612;2023-11-21T00:42:31;7.40;99.90
50162;DHT22;36061;48.116;11.612;2023-11-21T00:44:59;7.40;99.90
50162;DHT22;36061;48.116;11.612;2023-11-21T00:47:27;7.40;99.90
50162;DHT22;36061;48.116;11.612;2023-11-21T00:49:54;7.40;99.90
50162;DHT22;36061;48.116;11.612;2023-11-21T00:52:22;7.40;99.90
50162;DHT22;36061;48.116;11.612;2023-11-21T00:54:50;7.40;99.90
50162;DHT22;36061;48.116;11.612;2023-11-21T00:57:18;7.40;99.90
50162;DHT22;36061;48.116;11.612;2023-11-21T00:59:46;7.40;99.90
50162;DHT22;36061;48.116;11.612;2023-11-21T01:02:13;7.50;99.90
50162;DHT22;36061;48.116;11.612;2023-11-21T01:04:40;7.50;99.90
50162;DHT22;36061;48.116;11.612;2023-11-21T01:07:07;7.50;99.90
50162;DHT22;36061;48.116;11.612;2023-11-21T01:09:35;7.60;99.90
50162;DHT22;36061;48.116;11.612;2023-11-21T01:12:03;7.60;99.90
50162;DHT22;36061;48.116;11.612;2023-11-21T01:14:32;7.70;99.90
50162;DHT22;36061;48.116;11.612;2023-11-21T01:16:59;7.60;99.90
50162;DHT22;36061;48.116;11.612;2023-11-21T01:19:26;7.60;99.90
50162;DHT22;36061;48.116;11.612;2023-11-21T01:21:54;7.50;99.90
50162;DHT22;36061;48.116;11.612;2023-11-21T01:24:23;7.50;99.90
50162;DHT22;36061;48.116;11.612;2023-11-21T01:26:51;7.50;99.90
50162;DHT22;36061;48.116;11.612;2023-11-21T01:29:18;7.40;99.90
50162;DHT22;36061;48.116;11.612;2023-11-21T01:31:47;7.40;99.90
50162;DHT22;36061;48.116;11.612;2023-11-21T01:34:14;7.40;99.90
50162;DHT22;36061;48.116;11.612;2023-11-21T01:36:41;7.40;99.90
50162;DHT22;36061;48.116;11.612;2023-11-21T01:39:08;7.40;99.90
50162;DHT22;36061;48.116;11.612;2023-11-21T01:41:41;7.30;99.90
50162;DHT22;36061;48.116;11.612;2023-11-21T01:44:09;7.30;99.90
50162;DHT22;36061;48.116;11.612;2023-11-21T01:46:38;7.30;99.90
50162;DHT22;36061;48.116;11.612;2023-11-21T01:49:07;7.30;99.90
50162;DHT22;36061;48.116;11.612;2023-11-21T01:51:36;7.20;99.90
50162;DHT22;36061;48.116;11.612;2023-11-21T01:54:04;7.30;99.90
50162;DHT22;36061;48.116;11.612;2023-11-21T01:56:32;7.30;99.90
50162;DHT22;36061;48.116;11.612;2023-11-21T01:58:59;7.30;99.90
50162;DHT22;36061;48.116;11.612;2023-11-21T02:01:27;7.30;99.90
50162;DHT22;36061;48.116;11.612;2023-11-21T02:03:54;7.30;99.90
50162;DHT22;36061;48.116;11.612;2023-11-21T02:06:23;7.30;99.90
50162;DHT22;36061;48.116;11.612;2023-11-21T02:08:52;7.20;99.90
50162;DHT22;36061;48.116;11.612;2023-11-21T02:11:19;7.20;99.90
50162;DHT22;36061;48.116;11.612;2023-11-21T02:13:47;7.20;99.90
50162;DHT22;36061;48.116;11.612;2023-11-21T02:16:15;7.20;99.90
50162;DHT22;36061;48.116;11.612;2023-11-21T02:18:43;7.20;99.90
50162;DHT22;36061;48.116;11.612;2023-11-21T02:21:10;7.20;99.90
50162;DHT22;36061;48.116;11.612;2023-11-21T02:23:39;7.20;99.90
50162;DHT22;36061;48.116;11.612;2023-11-21T02:26:10;7.20;99.90
50162;DHT22;36061;48.116;11.612;2023-11-21T02:28:37;7.20;99.90
50162;DHT22;36061;48.116;11.612;2023-11-21T02:31:04;7.20;99.90
50162;DHT22;36061;48.116;11.612;2023-11-21T02:33:33;7.20;99.90
50162;DHT22;36061;48.116;11.612;2023-11-21T02:36:01;7.20;99.90
50162;DHT22;36061;48.116;11.612;2023-11-21T02:38:29;7.20;99.90
50162;DHT22;36061;48.116;11.612;2023-11-21T02:40:58;7.20;99.90
50162;DHT22;36061;48.116;11.612;2023-11-21T02:43:25;7.20;99.90
50162;DHT22;36061;48.116;11.612;2023-11-21T02:45:53;7.20;99.90
50162;DHT22;36061;48.116;11.612;2023-11-21T02:48:20;7.20;99.90
50162;DHT22;36061;48.116;11.612;2023-11-21T02:50:49;7.20;99.90
50162;DHT22;36061;48.116;11.612;2023-11-21T02:53:19;7.20;99.90
50162;DHT22;36061;48.116;11.612;2023-11-21T02:55:46;7.20;99.90
50162;DHT22;36061;48.116;11.612;2023-11-21T02:58:14;7.20;99.90
50162;DHT22;36061;48.116;11.612;2023-11-21T03:00:43;7.20;99.90
50162;DHT22;36061;48.116;11.612;2023-11-21T03:03:10;7.10;99.90
50162;DHT22;36061;48.116;11.612;2023-11-21T03:05:37;7.10;99.90
50162;DHT22;36061;48.116;11.612;2023-11-21T03:08:04;7.20;99.90
50162;DHT22;36061;48.116;11.612;2023-11-21T03:10:32;7.20;99.90
50162;DHT22;36061;48.116;11.612;2023-11-21T03:12:59;7.10;99.90
50162;DHT22;36061;48.116;11.612;2023-11-21T03:15:28;7.10;99.90
50162;DHT22;36061;48.116;11.612;2023-11-21T03:17:55;7.10;99.90
50162;DHT22;36061;48.116;11.612;2023-11-21T03:20:23;7.10;99.90
50162;DHT22;36061;48.116;11.612;2023-11-21T03:22:51;7.10;99.90
50162;DHT22;36061;48.116;11.612;2023-11-21T03:25:19;7.10;99.90
50162;DHT22;36061;48.116;11.612;2023-11-21T03:27:49;7.10;99.90
50162;DHT22;36061;48.116;11.612;2023-11-21T03:30:17;7.10;99.90
50162;DHT22;36061;48.116;11.612;2023-11-21T03:32:45;7.10;99.90
50162;DHT22;36061;48.116;11.612;2023-11-21T03:35:14;7.10;99.90
50162;DHT22;36061;48.116;11.612;2023-11-21T03:37:42;7.10;99.90
50162;DHT22;36061;48.116;11.612;2023-11-21T03:40:10;7.10;99.90
50162;DHT22;36061;48.116;11.612;2023-11-21T03:42:38;7.20;99.90
50162;DHT22;36061;48.116;11.612;2023-11-21T03:45:07;7.20;99.90
50162;DHT22;36061;48.116;11.612;2023-11-21T03:47:34;7.20;99.90
50162;DHT22;36061;48.116;11.612;2023-11-21T03:50:04;7.20;99.90
50162;DHT22;36061;48.116;11.612;2023-11-21T03:52:31;7.20;99.90
50162;DHT22;36061;48.116;11.612;2023-11-21T03:55:00;7.20;99.90
50162;DHT22;36061;48.116;11.612;2023-11-21T03:57:28;7.20;99.90
50162;DHT22;36061;48.116;11.612;2023-11-21T03:59:55;7.20;99.90
50162;DHT22;36061;48.116;11.612;2023-11-21T04:02:22;7.10;99.90
50162;DHT22;36061;48.116;11.612;2023-11-21T04:04:51;7.10;99.90
50162;DHT22;36061;48.116;11.612;2023-11-21T04:07:19;7.20;99.90
50162;DHT22;36061;48.116;11.612;2023-11-21T04:09:47;7.10;99.90
50162;DHT22;36061;48.116;11.612;2023-11-21T04:12:15;7.10;99.90
50162;DHT22;36061;48.116;11.612;2023-11-21T04:14:42;7.20;99.90
50162;DHT22;36061;48.116;11.612;2023-11-21T04:17:09;7.10;99.90
50162;DHT22;36061;48.116;11.612;2023-11-21T04:19:36;7.10;99.90
50162;DHT22;36061;48.116;11.612;2023-11-21T04:22:04;7.20;99.90
50162;DHT22;36061;48.116;11.612;2023-11-21T04:24:32;7.10;99.90
50162;DHT22;36061;48.116;11.612;2023-11-21T04:27:00;7.10;99.90
50162;DHT22;36061;48.116;11.612;2023-11-21T04:29:28;7.10;99.90
50162;DHT22;36061;48.116;11.612;2023-11-21T04:31:56;7.20;99.90
50162;DHT22;36061;48.116;11.612;2023-11-21T04:34:23;7.20;99.90
50162;DHT22;36061;48.116;11.612;2023-11-21T04:36:50;7.20;99.90
50162;DHT22;36061;48.116;11.612;2023-11-21T04:39:17;7.20;99.90
50162;DHT22;36061;48.116;11.612;2023-11-21T04:41:47;7.30;99.90
50162;DHT22;36061;48.116;11.612;2023-11-21T04:44:15;7.30;99.90
50162;DHT22;36061;48.116;11.612;2023-11-21T04:46:43;7.30;99.90
50162;DHT22;36061;48.116;11.612;2023-11-21T04:49:10;7.20;99.90
50162;DHT22;36061;48.116;11.612;2023-11-21T04:51:38;7.20;99.90
50162;DHT22;36061;48.116;11.612;2023-11-21T04:54:05;7.20;99.90
50162;DHT22;36061;48.116;11.612;2023-11-21T04:56:32;7.20;99.90
50162;DHT22;36061;48.116;11.612;2023-11-21T04:59:01;7.20;99.90
50162;DHT22;36061;48.116;11.612;2023-11-21T05:01:28;7.30;99.90
50162;DHT22;36061;48.116;11.612;2023-11-21T05:03:55;7.20;99.90
50162;DHT22;36061;48.116;11.612;2023-11-21T05:06:23;7.20;99.90
50162;DHT22;36061;48.116;11.612;2023-11-21T05:08:50;7.20;99.90
50162;DHT22;36061;48.116;11.612;2023-11-21T05:11:24;7.10;99.90
50162;DHT22;36061;48.116;11.612;2023-11-21T05:13:51;7.10;99.90
50162;DHT22;36061;48.116;11.612;2023-11-21T05:16:20;7.00;99.90
50162;DHT22;36061;48.116;11.612;2023-11-21T05:18:47;7.00;99.90
50162;DHT22;36061;48.116;11.612;2023-11-21T05:21:16;7.10;99.90
50162;DHT22;36061;48.116;11.612;2023-11-21T05:23:46;7.00;99.90
50162;DHT22;36061;48.116;11.612;2023-11-21T05:26:13;7.00;99.90
50162;DHT22;36061;48.116;11.612;2023-11-21T05:28:40;7.00;99.90
50162;DHT22;36061;48.116;11.612;2023-11-21T05:31:07;7.00;99.90
50162;DHT22;36061;48.116;11.612;2023-11-21T05:33:37;7.00;99.90
50162;DHT22;36061;48.116;11.612;2023-11-21T05:36:06;7.00;99.90
50162;DHT22;36061;48.116;11.612;2023-11-21T05:38:34;7.00;99.90
50162;DHT22;36061;48.116;11.612;2023-11-21T05:41:02;7.00;99.90
50162;DHT22;36061;48.116;11.612;2023-11-21T05:43:30;7.00;99.90
50162;DHT22;36061;48.116;11.612;2023-11-21T05:45:59;7.00;99.90
50162;DHT22;36061;48.116;11.612;2023-11-21T05:48:26;7.10;99.90
50162;DHT22;36061;48.116;11.612;2023-11-21T05:50:54;7.00;99.90
50162;DHT22;36061;48.116;11.612;2023-11-21T05:53:22;7.00;99.90
50162;DHT22;36061;48.116;11.612;2023-11-21T05:55:49;7.00;99.90
50162;DHT22;36061;48.116;11.612;2023-11-21T05:58:16;7.00;99.90
50162;DHT22;36061;48.116;11.612;2023-11-21T06:00:43;7.00;99.90
50162;DHT22;36061;48.116;11.612;2023-11-21T06:03:11;7.00;99.90
50162;DHT22;36061;48.116;11.612;2023-11-21T06:05:38;7.00;99.90
50162;DHT22;36061;48.116;11.612;2023-11-21T06:08:07;7.00;99.90
50162;DHT22;36061;48.116;11.612;2023-11-21T06:10:34;7.00;99.90
50162;DHT22;36061;48.116;11.612;2023-11-21T06:13:01;7.00;99.90
50162;DHT22;36061;48.116;11.612;2023-11-21T06:15:29;7.00;99.90
50162;DHT22;36061;48.116;11.612;2023-11-21T06:17:57;7.00;99.90
50162;DHT22;36061;48.116;11.612;2023-11-21T06:20:25;7.00;99.90
50162;DHT22;36061;48.116;11.612;2023-11-21T06:22:53;7.00;99.90
50162;DHT22;36061;48.116;11.612;2023-11-21T06:25:22;7.00;99.90
50162;DHT22;36061;48.116;11.612;2023-11-21T06:27:50;7.00;99.90
50162;DHT22;36061;48.116;11.612;2023-11-21T06:30:19;7.00;99.90
50162;DHT22;36061;48.116;11.612;2023-11-21T06:32:47;7.00;99.90
50162;DHT22;36061;48.116;11.612;2023-11-21T06:35:15;7.00;99.90
50162;DHT22;36061;48.116;11.612;2023-11-21T06:37:43;7.00;99.90
50162;DHT22;36061;48.116;11.612;2023-11-21T06:40:13;7.00;99.90
50162;DHT22;36061;48.116;11.612;2023-11-21T06:42:42;7.00;99.90
50162;DHT22;36061;48.116;11.612;2023-11-21T06:45:10;7.00;99.90
50162;DHT22;36061;48.116;11.612;2023-11-21T06:47:38;7.10;99.90
50162;DHT22;36061;48.116;11.612;2023-11-21T06:50:06;7.10;99.90
50162;DHT22;36061;48.116;11.612;2023-11-21T06:52:33;7.00;99.90
50162;DHT22;36061;48.116;11.612;2023-11-21T06:55:01;7.00;99.90
50162;DHT22;36061;48.116;11.612;2023-11-21T06:57:29;7.00;99.90
50162;DHT22;36061;48.116;11.612;2023-11-21T06:59:58;7.10;99.90
50162;DHT22;36061;48.116;11.612;2023-11-21T07:02:25;7.40;99.90
50162;DHT22;36061;48.116;11.612;2023-11-21T07:04:52;7.70;99.90
50162;DHT22;36061;48.116;11.612;2023-11-21T07:07:20;8.00;99.90
50162;DHT22;36061;48.116;11.612;2023-11-21T07:09:47;8.20;99.90
50162;DHT22;36061;48.116;11.612;2023-11-21T07:12:14;8.50;99.90
50162;DHT22;36061;48.116;11.612;2023-11-21T07:14:42;8.70;99.90
50162;DHT22;36061;48.116;11.612;2023-11-21T07:17:12;8.80;99.90
50162;DHT22;36061;48.116;11.612;2023-11-21T07:19:39;9.00;99.90
50162;DHT22;36061;48.116;11.612;2023-11-21T07:22:07;9.10;99.90
50162;DHT22;36061;48.116;11.612;2023-11-21T07:24:34;9.20;99.90
50162;DHT22;36061;48.116;11.612;2023-11-21T07:27:02;9.30;99.90
50162;DHT22;36061;48.116;11.612;2023-11-21T07:29:30;9.40;99.90
50162;DHT22;36061;48.116;11.612;2023-11-21T07:31:58;9.40;99.90
50162;DHT22;36061;48.116;11.612;2023-11-21T07:34:27;9.30;99.90
50162;DHT22;36061;48.116;11.612;2023-11-21T07:36:55;9.00;99.90
50162;DHT22;36061;48.116;11.612;2023-11-21T07:39:22;8.60;99.90
50162;DHT22;36061;48.116;11.612;2023-11-21T07:41:49;8.40;99.90
50162;DHT22;36061;48.116;11.612;2023-11-21T07:44:17;8.20;99.90
50162;DHT22;36061;48.116;11.612;2023-11-21T07:46:46;8.10;99.90
50162;DHT22;36061;48.116;11.612;2023-11-21T07:49:15;7.90;99.90
50162;DHT22;36061;48.116;11.612;2023-11-21T07:51:47;7.90;99.90
50162;DHT22;36061;48.116;11.612;2023-11-21T07:54:14;7.80;99.90
50162;DHT22;36061;48.116;11.612;2023-11-21T07:56:42;7.80;99.90
50162;DHT22;36061;48.116;11.612;2023-11-21T07:59:09;7.80;99.90
50162;DHT22;36061;48.116;11.612;2023-11-21T08:01:37;7.70;99.90
50162;DHT22;36061;48.116;11.612;2023-11-21T08:04:06;7.70;99.90
50162;DHT22;36061;48.116;11.612;2023-11-21T08:06:34;7.80;99.90
50162;DHT22;36061;48.116;11.612;2023-11-21T08:09:02;7.80;99.90
50162;DHT22;36061;48.116;11.612;2023-11-21T08:11:30;7.80;99.90
50162;DHT22;36061;48.116;11.612;2023-11-21T08:13:59;7.90;99.90
50162;DHT22;36061;48.116;11.612;2023-11-21T08:16:26;7.90;99.90
50162;DHT22;36061;48.116;11.612;2023-11-21T08:18:53;8.00;99.90
50162;DHT22;36061;48.116;11.612;2023-11-21T08:21:21;8.00;99.90
50162;DHT22;36061;48.116;11.612;2023-11-21T08:23:49;8.10;99.90
50162;DHT22;36061;48.116;11.612;2023-11-21T08:26:21;8.10;99.90
50162;DHT22;36061;48.116;11.612;2023-11-21T08:28:49;8.10;99.90
50162;DHT22;36061;48.116;11.612;2023-11-21T08:31:23;8.10;99.90
50162;DHT22;36061;48.116;11.612;2023-11-21T08:33:50;8.00;99.90
50162;DHT22;36061;48.116;11.612;2023-11-21T08:36:17;8.00;99.90
50162;DHT22;36061;48.116;11.612;2023-11-21T08:38:44;8.00;99.90
50162;DHT22;36061;48.116;11.612;2023-11-21T08:41:12;7.90;99.90
50162;DHT22;36061;48.116;11.612;2023-11-21T08:43:42;7.90;99.90
50162;DHT22;36061;48.116;11.612;2023-11-21T08:46:09;7.90;99.90
50162;DHT22;36061;48.116;11.612;2023-11-21T08:48:37;7.80;99.90
50162;DHT22;36061;48.116;11.612;2023-11-21T08:51:05;7.80;99.90
50162;DHT22;36061;48.116;11.612;2023-11-21T08:53:32;7.80;99.90
50162;DHT22;36061;48.116;11.612;2023-11-21T08:55:59;7.80;99.90
50162;DHT22;36061;48.116;11.612;2023-11-21T08:58:27;7.80;99.90
50162;DHT22;36061;48.116;11.612;2023-11-21T09:00:56;7.90;99.90
50162;DHT22;36061;48.116;11.612;2023-11-21T09:03:23;8.00;99.90
50162;DHT22;36061;48.116;11.612;2023-11-21T09:05:51;8.10;99.90
50162;DHT22;36061;48.116;11.612;2023-11-21T09:08:18;8.20;99.90
50162;DHT22;36061;48.116;11.612;2023-11-21T09:10:48;8.20;99.90
50162;DHT22;36061;48.116;11.612;2023-11-21T09:13:15;8.30;99.90
50162;DHT22;36061;48.116;11.612;2023-11-21T09:15:43;8.30;99.90
50162;DHT22;36061;48.116;11.612;2023-11-21T09:18:14;8.40;99.90
50162;DHT22;36061;48.116;11.612;2023-11-21T09:20:42;8.40;99.90
50162;DHT22;36061;48.116;11.612;2023-11-21T09:23:10;8.40;99.90
50162;DHT22;36061;48.116;11.612;2023-11-21T09:25:37;8.50;99.90
50162;DHT22;36061;48.116;11.612;2023-11-21T09:28:05;8.50;99.90
50162;DHT22;36061;48.116;11.612;2023-11-21T09:30:34;8.60;99.90
50162;DHT22;36061;48.116;11.612;2023-11-21T09:33:01;8.60;99.90
50162;DHT22;36061;48.116;11.612;2023-11-21T09:35:32;8.60;99.90
50162;DHT22;36061;48.116;11.612;2023-11-21T09:37:59;8.70;99.90
50162;DHT22;36061;48.116;11.612;2023-11-21T09:40:31;8.70;99.90
50162;DHT22;36061;48.116;11.612;2023-11-21T09:42:58;8.70;99.90
50162;DHT22;36061;48.116;11.612;2023-11-21T09:45:27;8.80;99.90
50162;DHT22;36061;48.116;11.612;2023-11-21T09:47:56;8.70;99.90
50162;DHT22;36061;48.116;11.612;2023-11-21T09:50:24;8.70;99.90
50162;DHT22;36061;48.116;11.612;2023-11-21T09:52:59;8.70;99.90
50162;DHT22;36061;48.116;11.612;2023-11-21T09:55:28;8.60;99.90
50162;DHT22;36061;48.116;11.612;2023-11-21T09:57:56;8.60;99.90
50162;DHT22;36061;48.116;11.612;2023-11-21T10:00:26;8.50;99.90
50162;DHT22;36061;48.116;11.612;2023-11-21T10:02:54;8.50;99.90
50162;DHT22;36061;48.116;11.612;2023-11-21T10:05:22;8.50;99.90
50162;DHT22;36061;48.116;11.612;2023-11-21T10:07:50;8.50;99.90
50162;DHT22;36061;48.116;11.612;2023-11-21T10:10:19;8.60;99.90
50162;DHT22;36061;48.116;11.612;2023-11-21T10:12:50;8.60;99.90
50162;DHT22;36061;48.116;11.612;2023-11-21T10:15:21;8.60;99.90
50162;DHT22;36061;48.116;11.612;2023-11-21T10:17:49;8.70;99.90
50162;DHT22;36061;48.116;11.612;2023-11-21T10:20:19;8.70;99.90
50162;DHT22;36061;48.116;11.612;2023-11-21T10:22:47;8.70;99.90
50162;DHT22;36061;48.116;11.612;2023-11-21T10:25:14;8.80;99.90
50162;DHT22;36061;48.116;11.612;2023-11-21T10:27:47;8.80;99.90
50162;DHT22;36061;48.116;11.612;2023-11-21T10:30:16;8.90;99.90
50162;DHT22;36061;48.116;11.612;2023-11-21T10:32:43;9.00;99.90
50162;DHT22;36061;48.116;11.612;2023-11-21T10:35:11;9.00;99.90
50162;DHT22;36061;48.116;11.612;2023-11-21T10:51:08;9.20;99.90
50162;DHT22;36061;48.116;11.612;2023-11-21T10:53:39;9.50;99.90
50162;DHT22;36061;48.116;11.612;2023-11-21T10:56:08;9.40;99.90
50162;DHT22;36061;48.116;11.612;2023-11-21T10:58:38;9.40;99.90
50162;DHT22;36061;48.116;11.612;2023-11-21T11:01:06;9.40;99.90
50162;DHT22;36061;48.116;11.612;2023-11-21T11:03:41;9.40;99.90
50162;DHT22;36061;48.116;11.612;2023-11-21T11:06:12;9.30;99.90
50162;DHT22;36061;48.116;11.612;2023-11-21T11:08:41;9.30;99.90
50162;DHT22;36061;48.116;11.612;2023-11-21T11:11:09;9.30;99.90
50162;DHT22;36061;48.116;11.612;2023-11-21T11:13:37;9.30;99.90
50162;DHT22;36061;48.116;11.612;2023-11-21T11:16:05;9.30;99.90
50162;DHT22;36061;48.116;11.612;2023-11-21T11:18:36;9.30;99.90
50162;DHT22;36061;48.116;11.612;2023-11-21T11:21:13;9.30;99.90
50162;DHT22;36061;48.116;11.612;2023-11-21T11:24:01;9.30;99.90
50162;DHT22;36061;48.116;11.612;2023-11-21T11:26:42;9.30;99.90
50162;DHT22;36061;48.116;11.612;2023-11-21T11:29:17;9.40;99.90
50162;DHT22;36061;48.116;11.612;2023-11-21T11:31:58;9.50;99.90
50162;DHT22;36061;48.116;11.612;2023-11-21T11:34:32;9.50;99.90
50162;DHT22;36061;48.116;11.612;2023-11-21T11:37:06;9.60;99.90
50162;DHT22;36061;48.116;11.612;2023-11-21T11:39:36;9.60;99.90
50162;DHT22;36061;48.116;11.612;2023-11-21T11:42:07;9.60;99.90
50162;DHT22;36061;48.116;11.612;2023-11-21T11:44:49;9.60;99.90
50162;DHT22;36061;48.116;11.612;2023-11-21T11:47:21;9.60;99.90
50162;DHT22;36061;48.116;11.612;2023-11-21T11:50:01;9.60;99.90
50162;DHT22;36061;48.116;11.612;2023-11-21T11:52:35;9.60;99.90
50162;DHT22;36061;48.116;11.612;2023-11-21T11:55:03;9.50;99.90
50162;DHT22;36061;48.116;11.612;2023-11-21T11:57:32;9.50;99.90
50162;DHT22;36061;48.116;11.612;2023-11-21T12:00:33;9.50;99.90
50162;DHT22;36061;48.116;11.612;2023-11-21T12:03:04;9.40;99.90
50162;DHT22;36061;48.116;11.612;2023-11-21T12:05:34;9.40;99.90
50162;DHT22;36061;48.116;11.612;2023-11-21T12:08:07;9.40;99.90
50162;DHT22;36061;48.116;11.612;2023-11-21T12:10:35;9.40;99.90
50162;DHT22;36061;48.116;11.612;2023-11-21T12:13:05;9.40;99.90
50162;DHT22;36061;48.116;11.612;2023-11-21T12:15:33;9.40;99.90
50162;DHT22;36061;48.116;11.612;2023-11-21T12:18:01;9.40;99.90
50162;DHT22;36061;48.116;11.612;2023-11-21T12:20:29;9.40;99.90
50162;DHT22;36061;48.116;11.612;2023-11-21T12:22:58;9.40;99.90
50162;DHT22;36061;48.116;11.612;2023-11-21T12:25:28;9.30;99.90
50162;DHT22;36061;48.116;11.612;2023-11-21T12:27:58;9.30;99.90
50162;DHT22;36061;48.116;11.612;2023-11-21T12:30:27;9.30;99.90
50162;DHT22;36061;48.116;11.612;2023-11-21T12:32:57;9.30;99.90
50162;DHT22;36061;48.116;11.612;2023-11-21T12:35:27;9.20;99.90
50162;DHT22;36061;48.116;11.612;2023-11-21T12:37:56;9.30;99.90
50162;DHT22;36061;48.116;11.612;2023-11-21T12:40:24;9.30;99.90
50162;DHT22;36061;48.116;11.612;2023-11-21T12:42:55;9.40;99.90
50162;DHT22;36061;48.116;11.612;2023-11-21T12:45:24;9.40;99.90
50162;DHT22;36061;48.116;11.612;2023-11-21T12:47:55;9.50;99.90
50162;DHT22;36061;48.116;11.612;2023-11-21T12:50:26;9.50;99.90
50162;DHT22;36061;48.116;11.612;2023-11-21T12:53:00;9.60;99.90
50162;DHT22;36061;48.116;11.612;2023-11-21T12:55:30;9.70;99.90
50162;DHT22;36061;48.116;11.612;2023-11-21T12:58:02;9.70;99.90
50162;DHT22;36061;48.116;11.612;2023-11-21T13:00:36;9.70;99.90
50162;DHT22;36061;48.116;11.612;2023-11-21T13:03:05;9.70;99.90
50162;DHT22;36061;48.116;11.612;2023-11-21T13:05:34;9.70;99.90
50162;DHT22;36061;48.116;11.612;2023-11-21T13:08:05;9.70;99.90
50162;DHT22;36061;48.116;11.612;2023-11-21T13:10:36;9.50;99.90
50162;DHT22;36061;48.116;11.612;2023-11-21T13:13:07;9.30;99.90
50162;DHT22;36061;48.116;11.612;2023-11-21T13:15:39;9.00;99.90
50162;DHT22;36061;48.116;11.612;2023-11-21T13:18:06;8.70;99.90
50162;DHT22;36061;48.116;11.612;2023-11-21T13:20:36;8.40;99.90
50162;DHT22;36061;48.116;11.612;2023-11-21T13:23:08;8.30;99.90
50162;DHT22;36061;48.116;11.612;2023-11-21T13:25:37;8.20;99.90
50162;DHT22;36061;48.116;11.612;2023-11-21T13:28:08;8.10;99.90
50162;DHT22;36061;48.116;11.612;2023-11-21T13:30:36;8.10;99.90
50162;DHT22;36061;48.116;11.612;2023-11-21T13:33:06;8.10;99.90
50162;DHT22;36061;48.116;11.612;2023-11-21T13:35:35;8.10;99.90
50162;DHT22;36061;48.116;11.612;2023-11-21T13:38:06;8.10;99.90
50162;DHT22;36061;48.116;11.612;2023-11-21T13:40:35;8.20;99.90
50162;DHT22;36061;48.116;11.612;2023-11-21T13:43:11;8.20;99.90
50162;DHT22;36061;48.116;11.612;2023-11-21T13:45:39;8.20;99.90
50162;DHT22;36061;48.116;11.612;2023-11-21T13:48:07;8.20;99.90
50162;DHT22;36061;48.116;11.612;2023-11-21T13:50:36;8.30;99.90
50162;DHT22;36061;48.116;11.612;2023-11-21T13:53:03;8.30;99.90
50162;DHT22;36061;48.116;11.612;2023-11-21T13:55:36;8.30;99.90
50162;DHT22;36061;48.116;11.612;2023-11-21T13:58:05;8.40;99.90
50162;DHT22;36061;48.116;11.612;2023-11-21T14:00:40;8.40;99.90
50162;DHT22;36061;48.116;11.612;2023-11-21T14:03:11;8.50;99.90
50162;DHT22;36061;48.116;11.612;2023-11-21T14:05:46;8.50;99.90
50162;DHT22;36061;48.116;11.612;2023-11-21T14:08:18;8.60;99.90
50162;DHT22;36061;48.116;11.612;2023-11-21T14:10:47;8.60;99.90
50162;DHT22;36061;48.116;11.612;2023-11-21T14:13:21;8.60;99.90
50162;DHT22;36061;48.116;11.612;2023-11-21T14:15:51;8.60;99.90
50162;DHT22;36061;48.116;11.612;2023-11-21T14:18:24;8.60;99.90
50162;DHT22;36061;48.116;11.612;2023-11-21T14:20:56;8.50;99.90
50162;DHT22;36061;48.116;11.612;2023-11-21T14:23:23;8.50;99.90
50162;DHT22;36061;48.116;11.612;2023-11-21T14:25:50;8.40;99.90
50162;DHT22;36061;48.116;11.612;2023-11-21T14:28:18;8.40;99.90
50162;DHT22;36061;48.116;11.612;2023-11-21T14:30:46;8.40;99.90
50162;DHT22;36061;48.116;11.612;2023-11-21T14:33:14;8.40;99.90
50162;DHT22;36061;48.116;11.612;2023-11-21T14:35:42;8.30;99.90
50162;DHT22;36061;48.116;11.612;2023-11-21T14:38:10;8.30;99.90
50162;DHT22;36061;48.116;11.612;2023-11-21T14:40:39;8.30;99.90
50162;DHT22;36061;48.116;11.612;2023-11-21T14:43:07;8.30;99.90
50162;DHT22;36061;48.116;11.612;2023-11-21T14:45:34;8.30;99.90
50162;DHT22;36061;48.116;11.612;2023-11-21T14:48:01;8.30;99.90
50162;DHT22;36061;48.116;11.612;2023-11-21T14:50:43;8.30;99.90
50162;DHT22;36061;48.116;11.612;2023-11-21T14:53:21;8.30;99.90
50162;DHT22;36061;48.116;11.612;2023-11-21T14:56:10;8.20;99.90
50162;DHT22;36061;48.116;11.612;2023-11-21T14:58:36;8.20;99.90
50162;DHT22;36061;48.116;11.612;2023-11-21T15:01:04;8.20;99.90
50162;DHT22;36061;48.116;11.612;2023-11-21T15:03:36;8.10;99.90
50162;DHT22;36061;48.116;11.612;2023-11-21T15:06:16;8.10;99.90
50162;DHT22;36061;48.116;11.612;2023-11-21T15:08:49;8.10;99.90
50162;DHT22;36061;48.116;11.612;2023-11-21T15:11:23;8.10;99.90
50162;DHT22;36061;48.116;11.612;2023-11-21T15:13:57;8.10;99.90
50162;DHT22;36061;48.116;11.612;2023-11-21T15:16:24;8.10;99.90
50162;DHT22;36061;48.116;11.612;2023-11-21T15:18:52;8.10;99.90
50162;DHT22;36061;48.116;11.612;2023-11-21T15:21:22;8.10;99.90
50162;DHT22;36061;48.116;11.612;2023-11-21T15:23:50;8.10;99.90
50162;DHT22;36061;48.116;11.612;2023-11-21T15:26:17;8.10;99.90
50162;DHT22;36061;48.116;11.612;2023-11-21T15:28:44;8.10;99.90
50162;DHT22;36061;48.116;11.612;2023-11-21T15:31:12;8.00;99.90
50162;DHT22;36061;48.116;11.612;2023-11-21T15:33:42;8.00;99.90
50162;DHT22;36061;48.116;11.612;2023-11-21T15:36:09;8.00;99.90
50162;DHT22;36061;48.116;11.612;2023-11-21T15:38:38;8.00;99.90
50162;DHT22;36061;48.116;11.612;2023-11-21T15:41:06;8.00;99.90
50162;DHT22;36061;48.116;11.612;2023-11-21T15:43:35;8.00;99.90
50162;DHT22;36061;48.116;11.612;2023-11-21T15:46:03;8.00;99.90
50162;DHT22;36061;48.116;11.612;2023-11-21T15:48:34;8.00;99.90
50162;DHT22;36061;48.116;11.612;2023-11-21T15:51:01;8.00;99.90
50162;DHT22;36061;48.116;11.612;2023-11-21T15:53:30;8.00;99.90